Time;durP1;ratioP1;P1;durP2;ratioP2;P2;SDS_P1;SDS_P2;PMS_P1;PMS_P2;Temp;Humidity;BMP_temperature;BMP_pressure;BME280_temperature;BME280_humidity;BME280_pressure;Samples;Min_cycle;Max_cycle;Signal;HPM_P1;HPM_P2
2022/03/23 00:02:36;;;;;;;20.27;11.75;;;;;;;-139.48;100.00;61774.03;4995095;28;20097;-73
2022/03/23 00:05:19;;;;;;;25.30;12.73;;;;;;;-139.48;100.00;61774.03;4994340;28;20057;-73
2022/03/23 00:08:03;;;;;;;24.33;12.70;;;;;;;-139.48;100.00;61774.03;4980797;28;20080;-72
2022/03/23 00:10:48;;;;;;;21.02;11.48;;;;;;;-139.48;100.00;61774.03;4980523;28;20084;-72
2022/03/23 00:13:31;;;;;;;22.85;13.20;;;;;;;-139.48;100.00;61774.03;4994567;28;20057;-72
2022/03/23 00:16:16;;;;;;;21.02;12.48;;;;;;;-139.48;100.00;61774.03;4994441;28;20138;-72
2022/03/23 00:18:59;;;;;;;26.20;12.77;;;;;;;-139.48;100.00;61774.03;4995072;28;20121;-72
2022/03/23 00:21:43;;;;;;;22.65;12.27;;;;;;;-139.48;100.00;61774.03;4980276;28;20046;-72
2022/03/23 00:24:27;;;;;;;19.40;12.57;;;;;;;-139.48;100.00;61774.03;4994271;28;20161;-72
2022/03/23 00:27:11;;;;;;;21.25;12.75;;;;;;;-139.48;100.00;61774.03;4980491;28;20134;-72
2022/03/23 00:29:55;;;;;;;24.27;14.18;;;;;;;-139.48;100.00;61774.03;4980285;28;20046;-72
2022/03/23 00:32:39;;;;;;;28.50;13.48;;;;;;;-139.48;100.00;61774.03;4995235;28;20509;-72
2022/03/23 00:35:23;;;;;;;21.85;12.40;;;;;;;-139.48;100.00;61774.03;4994290;28;20053;-72
2022/03/23 00:38:07;;;;;;;24.40;13.93;;;;;;;-139.48;100.00;61774.03;4980122;28;20057;-72
2022/03/23 00:40:51;;;;;;;25.92;12.70;;;;;;;-139.48;100.00;61774.03;4994558;28;20053;-72
2022/03/23 00:43:34;;;;;;;23.10;12.57;;;;;;;-139.48;100.00;61774.03;4994231;28;20045;-73
2022/03/23 00:46:19;;;;;;;27.25;13.10;;;;;;;-139.48;100.00;61774.03;4993563;28;20109;-72
2022/03/23 00:49:03;;;;;;;22.90;12.90;;;;;;;-139.48;100.00;61774.03;4993876;28;20049;-72
2022/03/23 00:51:48;;;;;;;26.20;13.55;;;;;;;-139.48;100.00;61774.03;4993734;28;20041;-72
2022/03/23 00:54:34;;;;;;;22.80;13.25;;;;;;;-139.48;100.00;61774.03;4994639;28;20061;-72
2022/03/23 00:57:18;;;;;;;25.65;13.55;;;;;;;-139.48;100.00;61774.03;4980239;28;20049;-72
2022/03/23 01:00:06;;;;;;;28.95;14.13;;;;;;;-139.48;100.00;61774.03;4993317;28;20412;-72
2022/03/23 01:02:49;;;;;;;25.50;14.55;;;;;;;-139.48;100.00;61774.03;4994279;28;20467;-72
2022/03/23 01:05:33;;;;;;;33.13;13.68;;;;;;;-139.48;100.00;61774.03;4993541;28;20165;-71
2022/03/23 01:08:17;;;;;;;28.02;13.88;;;;;;;-139.48;100.00;61774.03;4979819;28;20045;-72
2022/03/23 01:11:01;;;;;;;26.85;14.00;;;;;;;-139.48;100.00;61774.03;4993125;28;20080;-72
2022/03/23 01:13:45;;;;;;;26.70;14.95;;;;;;;-139.48;100.00;61774.03;4993202;28;20088;-72
2022/03/23 01:16:29;;;;;;;28.00;13.38;;;;;;;-139.48;100.00;61774.03;4993111;28;20046;-72
2022/03/23 01:19:13;;;;;;;26.73;14.15;;;;;;;-139.48;100.00;61774.03;4994071;28;20149;-72
2022/03/23 01:21:57;;;;;;;24.23;13.25;;;;;;;-139.48;100.00;61774.03;4994180;28;20051;-72
2022/03/23 01:24:41;;;;;;;27.80;14.77;;;;;;;-139.48;100.00;61774.03;4979629;28;20068;-71
2022/03/23 01:27:25;;;;;;;21.63;13.75;;;;;;;-139.48;100.00;61774.03;4994259;28;20096;-72
2022/03/23 01:30:13;;;;;;;23.83;13.50;;;;;;;-139.48;100.00;61774.03;4993108;28;20096;-72
2022/03/23 01:32:57;;;;;;;25.45;13.70;;;;;;;-139.48;100.00;61774.03;4993405;28;20069;-72
2022/03/23 01:35:41;;;;;;;26.85;16.20;;;;;;;-139.48;100.00;61774.03;4993015;28;20076;-72
2022/03/23 01:38:25;;;;;;;24.25;13.43;;;;;;;-139.48;100.00;61774.03;4993640;28;20057;-72
2022/03/23 01:41:09;;;;;;;23.52;14.45;;;;;;;-139.48;100.00;61774.03;4993196;28;20069;-72
2022/03/23 01:43:53;;;;;;;31.90;16.58;;;;;;;-139.48;100.00;61774.03;4993789;28;20053;-72
2022/03/23 01:46:37;;;;;;;23.27;14.68;;;;;;;-139.48;100.00;61774.03;4993138;28;20100;-72
2022/03/23 01:49:21;;;;;;;27.17;14.15;;;;;;;-139.48;100.00;61774.03;4994608;28;20053;-72
2022/03/23 01:52:07;;;;;;;27.58;14.95;;;;;;;-139.48;100.00;61774.03;4994357;28;20089;-72
2022/03/23 01:54:52;;;;;;;25.05;15.18;;;;;;;-139.48;100.00;61774.03;4993063;28;20077;-72
2022/03/23 01:57:39;;;;;;;31.83;14.40;;;;;;;-139.48;100.00;61774.03;4992734;28;20557;-72
2022/03/23 02:00:23;;;;;;;36.00;16.30;;;;;;;-139.48;100.00;61774.03;4992627;28;20050;-72
2022/03/23 02:03:06;;;;;;;27.20;15.60;;;;;;;-139.48;100.00;61774.03;4992964;28;20069;-72
2022/03/23 02:05:50;;;;;;;25.27;14.00;;;;;;;-139.48;100.00;61774.03;4994193;28;20061;-72
2022/03/23 02:08:34;;;;;;;29.45;15.75;;;;;;;-139.48;100.00;61774.03;4993136;28;20050;-72
2022/03/23 02:11:18;;;;;;;28.27;16.33;;;;;;;-139.48;100.00;61774.03;4992687;28;20040;-71
2022/03/23 02:14:02;;;;;;;29.73;17.23;;;;;;;-139.48;100.00;61774.03;4992938;28;20134;-72
2022/03/23 02:16:50;;;;;;;30.23;15.88;;;;;;;-139.48;100.00;61774.03;4992759;28;20069;-72
2022/03/23 02:19:35;;;;;;;24.95;15.50;;;;;;;-139.48;100.00;61774.03;4993937;28;20479;-72
2022/03/23 02:22:19;;;;;;;29.10;17.35;;;;;;;-139.48;100.00;61774.03;4993902;28;20130;-72
2022/03/23 02:25:04;;;;;;;28.05;15.93;;;;;;;-139.48;100.00;61774.03;4992808;28;20081;-72
2022/03/23 02:27:50;;;;;;;30.33;17.05;;;;;;;-139.48;100.00;61774.03;4996385;28;20052;-72
2022/03/23 02:30:33;;;;;;;27.35;16.30;;;;;;;-139.48;100.00;61774.03;4996228;28;20048;-72
2022/03/23 02:33:19;;;;;;;27.10;16.42;;;;;;;-139.48;100.00;61774.03;4996660;28;20053;-72
2022/03/23 02:36:03;;;;;;;30.40;16.08;;;;;;;-139.48;100.00;61774.03;4997008;28;20137;-72
2022/03/23 02:38:47;;;;;;;31.25;17.95;;;;;;;-139.48;100.00;61774.03;4996265;28;20049;-72
2022/03/23 02:41:31;;;;;;;27.77;14.60;;;;;;;-139.48;100.00;61774.03;4996797;28;20089;-72
2022/03/23 02:44:16;;;;;;;30.88;16.33;;;;;;;-139.48;100.00;61774.03;4996096;28;20065;-72
2022/03/23 02:47:01;;;;;;;30.15;15.27;;;;;;;-139.48;100.00;61774.03;4996093;28;20057;-72
2022/03/23 02:49:45;;;;;;;27.67;16.35;;;;;;;-139.48;100.00;61774.03;4996078;28;20100;-72
2022/03/23 02:52:31;;;;;;;27.98;16.77;;;;;;;-139.48;100.00;61774.03;4996716;28;20049;-72
2022/03/23 03:04:36;;;;;;;32.38;16.83;;;;;;;-139.48;100.00;61774.03;4996440;28;20194;-72
2022/03/23 03:07:20;;;;;;;27.77;14.50;;;;;;;-139.48;100.00;61774.03;4995732;28;20049;-72
2022/03/23 03:10:04;;;;;;;;;;;;;;;-139.48;100.00;61774.03;4997744;28;20101;-71
2022/03/23 03:12:50;;;;;;;25.80;12.85;;;;;;;-139.48;100.00;61774.03;4996632;28;20385;-71
2022/03/23 03:15:34;;;;;;;26.98;15.50;;;;;;;-139.48;100.00;61774.03;4981919;28;20046;-72
2022/03/23 03:18:18;;;;;;;33.85;16.38;;;;;;;-139.48;100.00;61774.03;4995274;28;20084;-72
2022/03/23 03:21:09;;;;;;;30.00;15.20;;;;;;;-139.48;100.00;61774.03;4995081;28;20489;-72
2022/03/23 03:23:53;;;;;;;29.20;16.52;;;;;;;-139.48;100.00;61774.03;4995149;28;20469;-71
2022/03/23 03:26:37;;;;;;;27.73;15.73;;;;;;;-139.48;100.00;61774.03;4996323;28;20053;-72
2022/03/23 03:29:22;;;;;;;;;;;;;;;-139.48;100.00;61774.03;4996723;28;20058;-72
2022/03/23 03:32:07;;;;;;;27.60;15.73;;;;;;;-139.48;100.00;61774.03;4995273;28;19973;-72
2022/03/23 03:34:51;;;;;;;25.50;15.25;;;;;;;-139.48;100.00;61774.03;4995221;28;20335;-71
2022/03/23 03:37:35;;;;;;;27.30;15.57;;;;;;;-139.48;100.00;61774.03;4980335;28;20177;-72
2022/03/23 03:40:19;;;;;;;27.80;15.40;;;;;;;-139.48;100.00;61774.03;4995920;28;20053;-72
2022/03/23 03:43:03;;;;;;;22.75;13.43;;;;;;;-139.48;100.00;61774.03;4996046;28;20052;-71
2022/03/23 03:45:47;;;;;;;26.65;14.88;;;;;;;-139.48;100.00;61774.03;4994758;28;20077;-72
2022/03/23 03:48:31;;;;;;;28.48;14.20;;;;;;;-139.48;100.00;61774.03;4996024;28;20052;-72
2022/03/23 03:51:15;;;;;;;30.98;14.70;;;;;;;-139.48;100.00;61774.03;4994644;28;20505;-72
2022/03/23 03:53:59;;;;;;;;;;;;;;;-139.48;100.00;61774.03;4995100;28;20053;-72
2022/03/23 03:56:43;;;;;;;26.73;15.77;;;;;;;-139.48;100.00;61774.03;4995515;28;19963;-72
2022/03/23 03:59:28;;;;;;;29.13;15.32;;;;;;;-139.48;100.00;61774.03;4994760;28;20053;-72
2022/03/23 04:02:14;;;;;;;26.50;16.77;;;;;;;-139.48;100.00;61774.03;4994382;28;20057;-71
2022/03/23 04:04:57;;;;;;;29.75;17.35;;;;;;;-139.48;100.00;61774.03;4995861;28;20069;-72
2022/03/23 04:07:41;;;;;;;;;;;;;;;-139.48;100.00;61774.03;4995703;28;20092;-72
2022/03/23 04:10:26;;;;;;;32.17;15.95;;;;;;;-139.48;100.00;61774.03;4994043;28;19924;-72
2022/03/23 04:13:10;;;;;;;31.70;16.25;;;;;;;-139.48;100.00;61774.03;4995705;28;20052;-72
2022/03/23 04:15:54;;;;;;;29.75;16.25;;;;;;;-139.48;100.00;61774.03;4994429;28;20045;-72
2022/03/23 04:18:38;;;;;;;33.95;16.52;;;;;;;-139.48;100.00;61774.03;4994383;28;20057;-72
2022/03/23 04:21:22;;;;;;;34.25;19.55;;;;;;;-139.48;100.00;61774.03;4994872;28;20430;-72
2022/03/23 04:24:06;;;;;;;29.38;16.85;;;;;;;-139.48;100.00;61774.03;4994290;28;20081;-71
2022/03/23 04:26:50;;;;;;;30.05;17.23;;;;;;;-139.48;100.00;61774.03;4994031;28;20161;-72
2022/03/23 04:29:34;;;;;;;30.15;15.57;;;;;;;-139.48;100.00;61774.03;4994106;28;20053;-72
2022/03/23 04:32:18;;;;;;;29.63;16.75;;;;;;;-139.48;100.00;61774.03;4993866;28;20161;-72
2022/03/23 04:35:04;;;;;;;31.13;16.00;;;;;;;-139.48;100.00;61774.03;4995057;28;20049;-72
2022/03/23 04:37:49;;;;;;;35.08;16.95;;;;;;;-139.48;100.00;61774.03;4994740;28;20099;-72
2022/03/23 04:40:33;;;;;;;31.83;15.60;;;;;;;-139.48;100.00;61774.03;4994109;28;20045;-71
2022/03/23 04:43:17;;;;;;;33.15;17.15;;;;;;;-139.48;100.00;61774.03;4993651;28;20081;-71
2022/03/23 04:46:01;;;;;;;31.42;17.15;;;;;;;-139.48;100.00;61774.03;4995077;28;20461;-72
2022/03/23 04:48:45;;;;;;;32.35;17.33;;;;;;;-139.48;100.00;61774.03;4993650;28;20492;-72
2022/03/23 04:51:30;;;;;;;32.38;17.17;;;;;;;-139.48;100.00;61774.03;4993436;28;20052;-72
2022/03/23 04:54:14;;;;;;;29.90;16.00;;;;;;;-139.48;100.00;61774.03;4993844;28;20084;-72
2022/03/23 04:56:58;;;;;;;27.63;15.60;;;;;;;-139.48;100.00;61774.03;4994692;28;20053;-72
2022/03/23 04:59:42;;;;;;;32.58;17.98;;;;;;;-139.48;100.00;61774.03;4993676;28;20061;-72
2022/03/23 05:02:26;;;;;;;29.50;16.83;;;;;;;-139.48;100.00;61774.03;4993249;28;20112;-71
2022/03/23 05:05:13;;;;;;;;;;;;;;;-139.48;100.00;61774.03;4980222;28;20085;-71
2022/03/23 05:07:57;;;;;;;28.95;16.27;;;;;;;-139.48;100.00;61774.03;4993544;28;20380;-71
2022/03/23 05:10:41;;;;;;;38.28;18.65;;;;;;;-139.48;100.00;61774.03;4979274;28;20041;-71
2022/03/23 05:13:25;;;;;;;34.22;18.02;;;;;;;-139.48;100.00;61774.03;4994117;28;20057;-72
2022/03/23 05:16:10;;;;;;;37.85;18.02;;;;;;;-139.48;100.00;61774.03;4993177;28;20509;-71
2022/03/23 05:18:54;;;;;;;33.22;17.50;;;;;;;-139.48;100.00;61774.03;4993419;28;20104;-71
2022/03/23 05:21:38;;;;;;;33.58;17.23;;;;;;;-139.48;100.00;61774.03;4993948;28;20069;-71
2022/03/23 05:24:22;;;;;;;37.67;18.48;;;;;;;-139.48;100.00;61774.03;4994299;28;20085;-71
2022/03/23 05:27:07;;;;;;;33.40;17.75;;;;;;;-139.48;100.00;61774.03;4993228;28;20101;-72
2022/03/23 05:29:51;;;;;;;33.88;16.52;;;;;;;-139.48;100.00;61774.03;4994244;28;20056;-71
2022/03/23 05:32:35;;;;;;;;;;;;;;;-139.48;100.00;61774.03;4994673;28;20049;-71
2022/03/23 05:35:19;;;;;;;32.78;17.20;;;;;;;-139.48;100.00;61774.03;4992951;28;19920;-71
2022/03/23 05:38:03;;;;;;;31.95;16.42;;;;;;;-139.48;100.00;61774.03;4992903;28;20049;-72
2022/03/23 05:40:47;;;;;;;28.40;17.67;;;;;;;-139.48;100.00;61774.03;4993988;28;20049;-72
2022/03/23 05:43:31;;;;;;;31.52;16.45;;;;;;;-139.48;100.00;61774.03;4993148;28;20141;-71
2022/03/23 05:46:15;;;;;;;33.70;18.20;;;;;;;-139.48;100.00;61774.03;4992809;28;20104;-71
2022/03/23 05:48:59;;;;;;;32.90;17.33;;;;;;;-139.48;100.00;61774.03;4993341;28;20426;-71
2022/03/23 05:51:42;;;;;;;31.77;16.73;;;;;;;-139.48;100.00;61774.03;4993941;28;20048;-72
2022/03/23 05:54:26;;;;;;;32.13;17.60;;;;;;;-139.48;100.00;61774.03;4993887;28;20465;-72
2022/03/23 05:57:10;;;;;;;;;;;;;;;-139.48;100.00;61774.03;4993435;28;20054;-72
2022/03/23 05:59:54;;;;;;;32.92;16.90;;;;;;;-139.48;100.00;61774.03;4993850;28;19922;-72
2022/03/23 06:02:39;;;;;;;;;;;;;;;-139.48;100.00;61774.03;4996942;28;20073;-71
2022/03/23 06:05:22;;;;;;;30.63;16.98;;;;;;;-139.48;100.00;61774.03;4996886;28;19921;-72
2022/03/23 06:08:07;;;;;;;28.27;16.20;;;;;;;-139.48;100.00;61774.03;4997557;28;20153;-71
2022/03/23 06:10:51;;;;;;;32.95;17.73;;;;;;;-139.48;100.00;61774.03;4996185;28;20461;-71
2022/03/23 06:13:36;;;;;;;31.50;17.70;;;;;;;-139.48;100.00;61774.03;4996687;28;20053;-71
2022/03/23 06:16:20;;;;;;;33.65;17.63;;;;;;;-139.48;100.00;61774.03;4982939;28;20497;-72
2022/03/23 06:19:03;;;;;;;;;;;;;;;-139.48;100.00;61774.03;4998056;28;20073;-72
2022/03/23 06:21:47;;;;;;;33.30;16.70;;;;;;;-139.48;100.00;61774.03;4996168;28;19965;-71
2022/03/23 06:24:31;;;;;;;32.90;17.27;;;;;;;-139.48;100.00;61774.03;4996530;28;20161;-71
2022/03/23 06:27:15;;;;;;;29.40;17.40;;;;;;;-139.48;100.00;61774.03;4996458;28;20084;-71
2022/03/23 06:29:59;;;;;;;32.35;18.00;;;;;;;-139.48;100.00;61774.03;4997043;28;20045;-72
2022/03/23 06:32:43;;;;;;;30.52;18.10;;;;;;;-139.48;100.00;61774.03;4996390;28;20405;-72
2022/03/23 06:35:29;;;;;;;36.25;18.63;;;;;;;-139.48;100.00;61774.03;4996243;28;20048;-71
2022/03/23 06:38:13;;;;;;;29.67;17.08;;;;;;;-139.48;100.00;61774.03;4996858;28;20101;-71
2022/03/23 06:40:58;;;;;;;40.50;19.23;;;;;;;-139.48;100.00;61774.03;4996059;28;20049;-71
2022/03/23 06:43:42;;;;;;;35.95;20.27;;;;;;;-139.48;100.00;61774.03;4996105;28;20204;-71
2022/03/23 06:46:26;;;;;;;45.75;26.80;;;;;;;-139.48;100.00;61774.03;4997003;28;20058;-71
2022/03/23 06:49:09;;;;;;;40.38;21.13;;;;;;;-139.48;100.00;61774.03;4997051;28;20107;-71
2022/03/23 06:51:53;;;;;;;42.38;19.60;;;;;;;-139.48;100.00;61774.03;4995960;28;20077;-71
2022/03/23 06:54:37;;;;;;;30.85;19.15;;;;;;;-139.48;100.00;61774.03;4995739;28;20101;-72
2022/03/23 06:57:21;;;;;;;35.92;19.67;;;;;;;-139.48;100.00;61774.03;4996701;28;20104;-72
2022/03/23 07:00:13;;;;;;;32.95;19.33;;;;;;;-139.48;100.00;61774.03;4995804;28;20084;-71
2022/03/23 07:02:57;;;;;;;30.48;17.63;;;;;;;-139.48;100.00;61774.03;4995583;28;20060;-71
2022/03/23 07:05:41;;;;;;;32.55;18.23;;;;;;;-139.48;100.00;61774.03;4981723;28;20042;-71
2022/03/23 07:11:28;;;;;;;34.40;18.48;;;;;;;-139.48;100.00;61774.03;4996036;28;20046;-71
2022/03/23 07:14:12;;;;;;;28.65;17.25;;;;;;;-139.48;100.00;61774.03;4994706;28;20049;-72
2022/03/23 07:16:56;;;;;;;32.85;18.85;;;;;;;-139.48;100.00;61774.03;4981745;28;20521;-71
2022/03/23 07:19:40;;;;;;;34.38;18.45;;;;;;;-139.48;100.00;61774.03;4995674;28;20048;-72
2022/03/23 07:22:24;;;;;;;;;;;;;;;-139.48;100.00;61774.03;4996533;28;20129;-71
2022/03/23 07:25:08;;;;;;;32.80;18.03;;;;;;;-139.48;100.00;61774.03;4995145;28;19924;-71
2022/03/23 07:27:52;;;;;;;30.73;17.35;;;;;;;-139.48;100.00;61774.03;4996337;28;20048;-71
2022/03/23 07:30:39;;;;;;;29.67;17.65;;;;;;;-139.48;100.00;61774.03;4995196;28;20053;-72
2022/03/23 07:33:23;;;;;;;30.52;18.77;;;;;;;-139.48;100.00;61774.03;4995247;28;20052;-72
2022/03/23 07:36:08;;;;;;;34.50;18.10;;;;;;;-139.48;100.00;61774.03;4996175;28;20048;-72
2022/03/23 07:38:52;;;;;;;34.20;18.08;;;;;;;-139.48;100.00;61774.03;4996045;28;20073;-71
2022/03/23 07:41:36;;;;;;;27.95;17.95;;;;;;;-139.48;100.00;61774.03;4980959;28;20116;-72
2022/03/23 07:44:21;;;;;;;29.08;15.77;;;;;;;-139.48;100.00;61774.03;4995308;28;20081;-71
2022/03/23 07:47:11;;;;;;;28.67;16.90;;;;;;;-139.48;100.00;61774.03;4994727;28;20045;-72
2022/03/23 07:49:55;;;;;;;33.47;17.77;;;;;;;-139.48;100.00;61774.03;4994620;28;20108;-72
2022/03/23 07:52:39;;;;;;;33.03;18.58;;;;;;;-139.48;100.00;61774.03;4995169;28;20076;-72
2022/03/23 07:55:23;;;;;;;33.22;19.27;;;;;;;-139.48;100.00;61774.03;4994787;28;20053;-72
2022/03/23 07:58:07;;;;;;;34.88;20.45;;;;;;;-139.48;100.00;61774.03;4995510;28;20054;-73
2022/03/23 08:00:51;;;;;;;31.17;18.65;;;;;;;-139.48;100.00;61774.03;4995366;28;20053;-72
2022/03/23 08:03:36;;;;;;;32.92;18.58;;;;;;;-139.48;100.00;61774.03;4994582;28;20073;-71
2022/03/23 08:06:20;;;;;;;28.52;18.70;;;;;;;-139.48;100.00;61774.03;4995313;28;20045;-71
2022/03/23 08:09:04;;;;;;;30.60;18.67;;;;;;;-139.48;100.00;61774.03;4995540;28;20053;-71
2022/03/23 08:11:48;;;;;;;34.47;19.05;;;;;;;-139.48;100.00;61774.03;4993999;28;20569;-71
2022/03/23 08:14:32;;;;;;;36.28;18.55;;;;;;;-139.48;100.00;61774.03;4995576;28;20057;-72
2022/03/23 08:17:15;;;;;;;34.67;20.05;;;;;;;-139.48;100.00;61774.03;4994395;28;20053;-72
2022/03/23 08:23:05;;;;;;;39.22;21.58;;;;;;;-139.48;100.00;61774.03;4994411;28;20112;-71
2022/03/23 08:25:49;;;;;;;29.38;18.63;;;;;;;-139.48;100.00;61774.03;4994202;28;20069;-72
2022/03/23 08:28:34;;;;;;;28.77;18.80;;;;;;;-139.48;100.00;61774.03;4995222;28;20118;-71
2022/03/23 08:31:19;;;;;;;34.90;19.15;;;;;;;-139.48;100.00;61774.03;4994835;28;20077;-72
2022/03/23 08:34:04;;;;;;;39.58;18.98;;;;;;;-139.48;100.00;61774.03;4994902;28;20048;-71
2022/03/23 08:36:48;;;;;;;39.63;20.40;;;;;;;-139.48;100.00;61774.03;4993899;28;20549;-71
2022/03/23 08:39:32;;;;;;;37.10;18.70;;;;;;;-139.48;100.00;61774.03;4993945;28;20089;-72
2022/03/23 08:42:16;;;;;;;31.73;19.38;;;;;;;-139.48;100.00;61774.03;4993554;28;20050;-71
2022/03/23 08:45:00;;;;;;;39.65;19.92;;;;;;;-139.48;100.00;61774.03;4993928;28;20050;-72
2022/03/23 08:47:44;;;;;;;31.73;17.75;;;;;;;-139.48;100.00;61774.03;4994102;28;20057;-72
2022/03/23 08:50:28;;;;;;;;;;;;;;;-139.48;100.00;61774.03;4994013;28;20556;-72
2022/03/23 08:53:12;;;;;;;33.43;17.93;;;;;;;-139.48;100.00;61774.03;4993794;28;19925;-71
2022/03/23 08:55:57;;;;;;;33.38;18.75;;;;;;;-139.48;100.00;61774.03;4994366;28;20548;-72
2022/03/23 08:58:47;;;;;;;33.30;19.45;;;;;;;-139.48;100.00;61774.03;4993940;28;20520;-72
2022/03/23 09:01:31;;;;;;;36.60;19.60;;;;;;;-139.48;100.00;61774.03;4993485;28;20050;-72
2022/03/23 09:04:15;;;;;;;32.72;20.38;;;;;;;-139.48;100.00;61774.03;4994576;28;20492;-71
2022/03/23 09:07:00;;;;;;;31.15;19.05;;;;;;;-139.48;100.00;61774.03;4993513;28;20054;-71
2022/03/23 09:09:44;;;;;;;31.42;19.52;;;;;;;-139.48;100.00;61774.03;4993512;28;20050;-71
2022/03/23 09:12:28;;;;;;;40.15;20.02;;;;;;;-139.48;100.00;61774.03;4994705;28;20045;-72
2022/03/23 09:15:14;;;;;;;30.52;18.10;;;;;;;-139.48;100.00;61774.03;4993454;28;20049;-72
2022/03/23 09:17:59;;;;;;;32.17;19.45;;;;;;;-139.48;100.00;61774.03;4993277;28;20442;-72
2022/03/23 09:20:43;;;;;;;32.60;18.58;;;;;;;-139.48;100.00;61774.03;4994122;28;20521;-72
2022/03/23 09:23:27;;;;;;;34.63;18.65;;;;;;;-139.48;100.00;61774.03;4994302;28;20049;-72
2022/03/23 09:26:11;;;;;;;31.65;20.50;;;;;;;-139.48;100.00;61774.03;4994385;28;20084;-72
2022/03/23 09:28:56;;;;;;;35.63;19.45;;;;;;;-139.48;100.00;61774.03;4993006;28;20072;-72
2022/03/23 09:31:39;;;;;;;36.30;18.55;;;;;;;-139.48;100.00;61774.03;4992882;28;20060;-72
2022/03/23 09:34:24;;;;;;;32.28;18.75;;;;;;;-139.48;100.00;61774.03;4993034;28;20437;-72
2022/03/23 09:40:11;;;;;;;33.17;19.58;;;;;;;-139.48;100.00;61774.03;4993961;28;20049;-72
2022/03/23 09:42:56;;;;;;;31.25;17.98;;;;;;;-139.48;100.00;61774.03;4993633;28;20134;-72
2022/03/23 09:48:31;;;;;;;33.20;18.48;;;;;;;-139.48;100.00;61774.03;4993366;28;20117;-72
2022/03/23 09:51:15;;;;;;;31.67;19.20;;;;;;;-139.48;100.00;61774.03;4992816;28;20445;-72
2022/03/23 09:54:00;;;;;;;32.90;19.42;;;;;;;-139.48;100.00;61774.03;4993039;28;20065;-72
2022/03/23 09:56:44;;;;;;;32.35;20.35;;;;;;;-139.48;100.00;61774.03;4993773;28;20049;-70
2022/03/23 09:59:28;;;;;;;32.10;20.75;;;;;;;-139.48;100.00;61774.03;4993931;28;20084;-70
2022/03/23 10:02:31;;;;;;;;;;;;;;;-139.48;100.00;61774.03;4979322;28;20532;-68
2022/03/23 10:05:24;;;;;;;29.23;19.95;;;;;;;-139.48;100.00;61774.03;4993932;28;20376;-69
2022/03/23 10:08:40;;;;;;;27.45;19.25;;;;;;;-139.48;100.00;61774.03;4993759;28;20045;-69
2022/03/23 10:12:02;;;;;;;25.67;19.73;;;;;;;-139.48;100.00;61774.03;4969752;28;20045;-69
2022/03/23 10:15:04;;;;;;;31.88;21.38;;;;;;;-139.48;100.00;61774.03;4993788;28;20049;-69
2022/03/23 10:18:14;;;;;;;34.78;21.50;;;;;;;-139.48;100.00;61774.03;4993545;28;20089;-69
2022/03/23 10:20:58;;;;;;;28.02;19.73;;;;;;;-139.48;100.00;61774.03;4993462;28;20057;-69
2022/03/23 10:24:11;;;;;;;26.15;20.17;;;;;;;-139.48;100.00;61774.03;4992788;28;20133;-69
2022/03/23 10:26:55;;;;;;;29.60;20.73;;;;;;;-139.48;100.00;61774.03;4993399;28;20085;-69
2022/03/23 10:29:44;;;;;;;26.48;21.95;;;;;;;-139.48;100.00;61774.03;4993840;28;20085;-69
2022/03/23 10:32:35;;;;;;;25.45;22.10;;;;;;;-139.48;100.00;61774.03;4992627;28;20041;-69
2022/03/23 10:35:19;;;;;;;30.77;22.05;;;;;;;-139.48;100.00;61774.03;4992630;28;20044;-69
2022/03/23 10:38:15;;;;;;;27.65;21.45;;;;;;;-139.48;100.00;61774.03;4993567;28;20058;-69
2022/03/23 10:41:07;;;;;;;28.08;22.02;;;;;;;-139.48;100.00;61774.03;4992565;28;20104;-70
2022/03/23 10:43:52;;;;;;;25.10;19.87;;;;;;;-139.48;100.00;61774.03;4993556;28;20073;-69
2022/03/23 10:46:40;;;;;;;25.35;20.52;;;;;;;-139.48;100.00;61774.03;4979166;28;20508;-69
2022/03/23 10:49:38;;;;;;;23.38;19.38;;;;;;;-139.48;100.00;61774.03;4996791;28;20046;-70
2022/03/23 10:52:24;;;;;;;25.75;21.23;;;;;;;-139.48;100.00;61774.03;4996941;28;20189;-69
2022/03/23 10:55:10;;;;;;;29.50;21.23;;;;;;;-139.48;100.00;61774.03;4995940;28;20049;-69
2022/03/23 10:58:21;;;;;;;25.63;21.77;;;;;;;-139.48;100.00;61774.03;4995945;28;20049;-69
2022/03/23 11:01:06;;;;;;;32.25;21.38;;;;;;;-139.48;100.00;61774.03;4996525;28;20049;-69
2022/03/23 11:03:50;;;;;;;25.02;21.15;;;;;;;-139.48;100.00;61774.03;4995847;28;20049;-70
2022/03/23 11:06:42;;;;;;;30.80;20.13;;;;;;;-139.48;100.00;61774.03;4995488;28;20173;-70
2022/03/23 11:15:47;;;;;;;23.55;19.30;;;;;;;-139.48;100.00;61774.03;4995758;28;20173;-70
2022/03/23 11:18:32;;;;;;;20.42;17.73;;;;;;;-139.48;100.00;61774.03;4995402;28;20077;-70
2022/03/23 11:21:16;;;;;;;24.25;19.08;;;;;;;-139.48;100.00;61774.03;4981587;28;20070;-70
2022/03/23 11:24:00;;;;;;;21.90;19.52;;;;;;;-139.48;100.00;61774.03;4995484;28;20045;-69
2022/03/23 11:26:44;;;;;;;23.33;20.30;;;;;;;-139.48;100.00;61774.03;4995158;28;20513;-70
2022/03/23 11:29:30;;;;;;;26.17;19.83;;;;;;;-139.48;100.00;61774.03;4995107;28;20045;-70
2022/03/23 11:32:16;;;;;;;20.45;17.17;;;;;;;-139.48;100.00;61774.03;4994956;28;20093;-70
2022/03/23 11:35:02;;;;;;;19.50;17.45;;;;;;;-139.48;100.00;61774.03;4996208;28;20057;-70
2022/03/23 11:37:47;;;;;;;18.35;16.38;;;;;;;-139.48;100.00;61774.03;4996171;28;20461;-70
2022/03/23 11:40:31;;;;;;;18.70;16.73;;;;;;;-139.48;100.00;61774.03;4994780;28;20129;-70
2022/03/23 11:43:18;;;;;;;16.65;15.00;;;;;;;-139.48;100.00;61774.03;4995063;28;20050;-70
2022/03/23 11:46:04;;;;;;;16.55;14.07;;;;;;;-139.48;100.00;61774.03;4994789;28;20077;-70
2022/03/23 11:49:25;;;;;;;19.73;16.42;;;;;;;-139.48;100.00;61774.03;4994836;28;20053;-70
2022/03/23 11:52:31;;;;;;;20.98;16.90;;;;;;;-139.48;100.00;61774.03;4995629;28;20048;-70
2022/03/23 11:58:37;;;;;;;19.45;16.30;;;;;;;-139.48;100.00;61774.03;4994215;28;20048;-70
2022/03/23 12:01:30;;;;;;;16.75;15.10;;;;;;;-139.48;100.00;61774.03;4994628;28;20064;-70
2022/03/23 12:04:18;;;;;;;16.27;13.95;;;;;;;-139.48;100.00;61774.03;4995690;28;20114;-70
2022/03/23 12:07:07;;;;;;;16.80;14.57;;;;;;;-139.48;100.00;61774.03;4980688;28;20525;-70
2022/03/23 12:09:51;;;;;;;17.08;15.40;;;;;;;-139.48;100.00;61774.03;4995027;28;20127;-70
2022/03/23 12:12:38;;;;;;;17.90;15.95;;;;;;;-139.48;100.00;61774.03;4994480;28;20053;-70
2022/03/23 12:15:26;;;;;;;17.42;14.93;;;;;;;-139.48;100.00;61774.03;4994158;28;20227;-70
2022/03/23 12:18:13;;;;;;;22.45;17.38;;;;;;;-139.48;100.00;61774.03;4995400;28;20141;-70
2022/03/23 12:20:56;;;;;;;19.25;16.17;;;;;;;-139.48;100.00;61774.03;4980769;28;20141;-70
2022/03/23 12:23:48;;;;;;;19.23;15.98;;;;;;;-139.48;100.00;61774.03;4994248;28;20053;-70
2022/03/23 12:26:38;;;;;;;17.75;14.18;;;;;;;-139.48;100.00;61774.03;4994530;28;20512;-70
2022/03/23 12:29:29;;;;;;;17.25;14.20;;;;;;;-139.48;100.00;61774.03;4993935;28;20421;-70
2022/03/23 12:32:14;;;;;;;16.95;14.60;;;;;;;-139.48;100.00;61774.03;4993831;28;20473;-70
2022/03/23 12:34:58;;;;;;;16.55;14.43;;;;;;;-139.48;100.00;61774.03;4994321;28;20089;-70
2022/03/23 12:37:42;;;;;;;21.15;15.55;;;;;;;-139.48;100.00;61774.03;4993992;28;20560;-70
2022/03/23 12:40:40;;;;;;;16.75;14.80;;;;;;;-139.48;100.00;61774.03;4993650;28;20053;-70
2022/03/23 12:43:42;;;;;;;15.90;12.82;;;;;;;-139.48;100.00;61774.03;4993978;28;20061;-70
2022/03/23 12:46:28;;;;;;;15.18;13.30;;;;;;;-139.48;100.00;61774.03;4993874;28;20049;-70
2022/03/23 12:58:27;;;;;;;17.15;13.63;;;;;;;-139.48;100.00;61774.03;4993806;28;20108;-70
2022/03/23 13:01:15;;;;;;;16.23;14.50;;;;;;;-139.48;100.00;61774.03;4993430;28;20045;-70